TimeCST,TemperatureF,Dew PointF,Humidity,Sea Level PressureIn,VisibilityMPH,Wind Direction,Wind SpeedMPH,Gust SpeedMPH,PrecipitationIn,Events,Conditions,WindDirDegrees,DateUTC
12:53 AM,62.1,50.0,65,30.17,10.0,Variable,5.8,-,N/A,,Scattered Clouds,0,2013-02-03 06:53:00
1:53 AM,60.1,51.1,72,30.17,10.0,Variable,3.5,-,N/A,,Mostly Cloudy,0,2013-02-03 07:53:00
2:53 AM,54.0,48.9,83,30.19,10.0,North,8.1,-,N/A,,Mostly Cloudy,350,2013-02-03 08:53:00
3:53 AM,52.0,48.0,86,30.19,10.0,NNW,8.1,-,N/A,,Clear,340,2013-02-03 09:53:00
4:53 AM,52.0,46.9,83,30.19,10.0,North,10.4,-,N/A,,Clear,360,2013-02-03 10:53:00
5:53 AM,51.1,44.1,77,30.20,10.0,North,8.1,-,N/A,,Clear,360,2013-02-03 11:53:00
6:53 AM,50.0,45.0,83,30.22,10.0,NNE,6.9,-,N/A,,Clear,20,2013-02-03 12:53:00
7:53 AM,52.0,44.1,74,30.24,10.0,NNE,5.8,-,N/A,,Clear,20,2013-02-03 13:53:00
8:53 AM,55.0,41.0,59,30.25,10.0,NE,4.6,-,N/A,,Clear,50,2013-02-03 14:53:00
9:53 AM,57.0,37.9,49,30.25,10.0,North,3.5,-,N/A,,Clear,350,2013-02-03 15:53:00
10:53 AM,62.1,36.0,38,30.23,10.0,Calm,Calm,-,N/A,,Clear,0,2013-02-03 16:53:00
11:53 AM,63.0,32.0,31,30.20,10.0,Variable,5.8,-,N/A,,Clear,0,2013-02-03 17:53:00
12:53 PM,61.0,39.9,46,30.16,10.0,SSW,8.1,-,N/A,,Clear,200,2013-02-03 18:53:00
1:53 PM,64.0,39.0,40,30.14,10.0,SW,6.9,-,N/A,,Clear,230,2013-02-03 19:53:00
2:53 PM,66.0,39.0,37,30.13,10.0,WSW,6.9,16.1,N/A,,Clear,250,2013-02-03 20:53:00
3:53 PM,64.0,39.0,40,30.11,10.0,West,6.9,-,N/A,,Clear,260,2013-02-03 21:53:00
4:53 PM,62.1,42.1,48,30.12,10.0,WSW,5.8,-,N/A,,Clear,250,2013-02-03 22:53:00
5:53 PM,61.0,43.0,52,30.12,10.0,Variable,3.5,-,N/A,,Clear,0,2013-02-03 23:53:00
6:53 PM,61.0,45.0,56,30.13,10.0,WSW,6.9,-,N/A,,Clear,250,2013-02-04 00:53:00
7:53 PM,60.1,46.0,60,30.13,10.0,West,3.5,-,N/A,,Clear,270,2013-02-04 01:53:00
8:53 PM,57.0,42.1,57,30.14,10.0,Calm,Calm,-,N/A,,Clear,0,2013-02-04 02:53:00
9:53 PM,55.9,42.1,60,30.14,10.0,Calm,Calm,-,N/A,,Clear,0,2013-02-04 03:53:00
10:53 PM,55.9,43.0,62,30.13,10.0,Calm,Calm,-,N/A,,Clear,0,2013-02-04 04:53:00
11:53 PM,55.9,44.1,64,30.12,10.0,NW,4.6,-,N/A,,Clear,310,2013-02-04 05:53:00